Aeroporto :
LOGIN :

Iscrizione | Disclaimer

   EN    FR    IT 

 










Sommario :    VFR   VFR Marginale   IFR   IFR Intensivo   IFR Molto Intensivo
Visibilità : 
Base nubi : 
>= 8 km
>= 3000ft
5 / 8 km
1000 / 3000 ft
1500m / 5 km
500 / 1000 ft
800 / 1500m
200 / 500 ft
< 800m
< 200 ft
Simboli :   Temporali  Nebbia  Neve Forte  Precipitazioni Forti  Vento > 20 kt
SIGMETs :   Varie  Temporali  Ghiacco  Turbolenza  Onda orograficha  Ceneri Vulcaniche







- Altitudine del aeroporto : 138 ft
- Codice IATA : BIO


LEBB - Bilbao

ULTIMO METAR :
  • 200100Z AUTO 11004KT 080V150 9999 SCT021 SCT026 09/09 Q1016

METARs OBSOLETI :
  • 200030Z AUTO 12003KT 9999 SCT023 BKN029 10/09 Q1016
  • 200000Z AUTO 10003KT 9999 SCT020 SCT026 10/10 Q1016
  • 192330Z AUTO VRB02KT 9999 SCT021 SCT026 10/09 Q1016
  • 192300Z AUTO 10003KT 9999 SCT025 10/09 Q1017
  • 192230Z AUTO 14002KT 9999 SCT027 SCT033 10/09 Q1017

TAF TAF LEBB
Valido dal 20 a 00 ore il 21 a 00 ore UTC


192300Z 2000/2024 VRB05KT 9999 SCT020 TX17/2014Z TN07/2004Z
PROB30
TEMPO 2004/2006 3000 BR BKN010
PROB40
TEMPO 2008/2018 30010KT
PROB40
TEMPO 2014/2018 03010KT
Nessun NOTAM noto per questo aeroporto.



MetMap, La meteo Aeronautica in un colpo d'occhio ! - Copyright ORBIFLY Dicembre 2007 - Disclaimer

ORBIFLY MET'MAP TEAM :

Programmazione e sviluppo : Alexandra Zaïnal
Concezione e sviluppo : Baudouin d'Aumeries
Co-Programmazione e sviluppo : Marc-Olivier Méhu
Supporto tecnico e logistico : Manuel Goepfert
Aiuto per la traduzione : Arnaldo La Scala

Contatto : metmap@orbifly.com




FONTI E CREDITI :

   NOAA